createdAt,value
2018-07-30T00:04:17.939Z,56
2018-07-30T00:09:20.109Z,53.5
2018-07-30T00:14:22.580Z,50.7
2018-07-30T00:19:25.020Z,48.9
2018-07-30T00:24:27.484Z,45.3
2018-07-30T00:29:30.040Z,46
2018-07-30T00:34:32.422Z,43.2
2018-07-30T00:39:34.915Z,41.5
2018-07-30T00:44:37.346Z,41.1
2018-07-30T00:49:39.782Z,37.6
2018-07-30T00:54:42.242Z,39.4
2018-07-30T00:59:44.690Z,39.1
2018-07-30T01:04:47.165Z,36.9
2018-07-30T01:14:52.222Z,38.2
2018-07-30T01:19:54.826Z,36.4
2018-07-30T01:24:56.991Z,38.4
2018-07-30T01:29:59.524Z,37
2018-07-30T01:35:02.052Z,37.4
2018-07-30T01:40:04.370Z,39.2
2018-07-30T01:45:06.907Z,38.1
2018-07-30T01:50:10.250Z,40.8
2018-07-30T01:55:11.726Z,43.6
2018-07-30T02:00:14.204Z,46.3
2018-07-30T02:05:16.731Z,47.9
2018-07-30T02:10:19.258Z,53.3
2018-07-30T02:20:24.319Z,57.8
2018-07-30T02:25:26.547Z,61.4
2018-07-30T02:30:28.973Z,64.8
2018-07-30T02:35:31.454Z,69.5
2018-07-30T02:40:33.898Z,75.7
2018-07-30T02:45:36.326Z,82.3
2018-07-30T02:50:38.816Z,87.5
2018-07-30T02:55:41.236Z,87.5
2018-07-30T03:00:43.771Z,90.7
2018-07-30T03:05:46.270Z,92.1
2018-07-30T03:10:48.675Z,92.1
2018-07-30T03:15:51.090Z,95.6
2018-07-30T03:20:53.577Z,97.1
2018-07-30T03:25:55.996Z,98.4
2018-07-30T03:30:58.467Z,99.9
2018-07-30T03:36:00.965Z,99.9
2018-07-30T03:41:03.396Z,99.9
2018-07-30T03:46:05.820Z,99.9
2018-07-30T03:51:08.490Z,99.9
2018-07-30T03:56:10.754Z,99.9
2018-07-30T04:01:13.270Z,99.9
2018-07-30T04:06:15.893Z,99.9
2018-07-30T04:11:18.158Z,99.9
2018-07-30T04:16:20.593Z,99.9
2018-07-30T04:21:23.040Z,99.9
2018-07-30T04:26:25.505Z,99.9
2018-07-30T04:31:28.016Z,99.9
2018-07-30T04:36:30.445Z,99.9
2018-07-30T04:41:32.903Z,99.9
2018-07-30T04:46:35.324Z,99.9
2018-07-30T04:51:38.123Z,97.1
2018-07-30T04:56:40.310Z,95.4
2018-07-30T05:01:42.742Z,92.4
2018-07-30T05:06:45.275Z,89.6
2018-07-30T05:11:47.626Z,76.9
2018-07-30T05:16:50.263Z,75.9
2018-07-30T05:21:52.540Z,75.6
2018-07-30T05:31:57.557Z,61.3
2018-07-30T05:37:00.203Z,44
2018-07-30T05:42:02.418Z,15.2
2018-07-30T05:47:04.835Z,2.2
2018-07-30T05:52:07.805Z,1
2018-07-30T05:57:09.763Z,1
2018-07-30T06:02:12.325Z,1
2018-07-30T06:07:14.705Z,1
2018-07-30T06:12:17.159Z,1
2018-07-30T06:17:19.610Z,1
2018-07-30T06:22:22.097Z,1
2018-07-30T06:27:24.691Z,1
2018-07-30T06:32:26.996Z,1
2018-07-30T06:37:29.802Z,1
2018-07-30T06:42:32.089Z,1
2018-07-30T06:47:34.419Z,1
2018-07-30T06:52:37.005Z,1
2018-07-30T06:57:39.354Z,1
2018-07-30T07:02:42.223Z,1
2018-07-30T07:07:44.637Z,1
2018-07-30T07:12:46.990Z,1
2018-07-30T07:17:49.272Z,1
2018-07-30T07:22:51.749Z,1
2018-07-30T07:27:54.392Z,1
2018-07-30T07:33:01.748Z,1
2018-07-30T07:37:59.021Z,1
2018-07-30T07:43:01.665Z,1
2018-07-30T07:48:03.975Z,1
2018-07-30T07:53:06.581Z,1
2018-07-30T07:58:08.977Z,1
2018-07-30T08:03:11.359Z,1
2018-07-30T08:08:14.166Z,1
2018-07-30T08:13:16.491Z,1
2018-07-30T08:18:19.387Z,1
2018-07-30T08:23:21.217Z,1
2018-07-30T08:28:23.773Z,1
2018-07-30T08:33:26.203Z,1
2018-07-30T08:38:28.654Z,1
2018-07-30T08:43:31.026Z,1
2018-07-30T08:48:33.488Z,1
2018-07-30T08:53:35.976Z,1
2018-07-30T08:58:38.412Z,1
2018-07-30T09:03:41.069Z,1
2018-07-30T09:08:43.399Z,1
2018-07-30T09:13:46.017Z,1
2018-07-30T09:18:48.255Z,1
2018-07-30T09:23:50.779Z,1
2018-07-30T09:28:56.775Z,1
2018-07-30T09:33:55.766Z,1
2018-07-30T09:38:58.145Z,1
2018-07-30T09:44:00.581Z,1
2018-07-30T09:49:03.061Z,1
2018-07-30T09:59:07.991Z,1
2018-07-30T10:04:10.413Z,1
2018-07-30T10:09:12.862Z,1
2018-07-30T10:14:15.405Z,1
2018-07-30T10:19:17.829Z,1
2018-07-30T10:24:20.474Z,1
2018-07-30T10:29:23.047Z,1
2018-07-30T10:34:25.300Z,1
2018-07-30T10:39:27.630Z,1
2018-07-30T10:44:30.996Z,1
2018-07-30T10:49:35.355Z,1
2018-07-30T10:54:35.016Z,1
2018-07-30T10:59:37.462Z,1
2018-07-30T11:04:40.324Z,1
2018-07-30T11:09:42.651Z,1
2018-07-30T11:14:44.923Z,1
2018-07-30T11:19:47.540Z,1
2018-07-30T11:24:49.782Z,1
2018-07-30T11:29:52.224Z,1
2018-07-30T11:34:54.683Z,1
2018-07-30T11:39:57.391Z,1
2018-07-30T11:45:00.089Z,1
2018-07-30T11:50:02.494Z,1
2018-07-30T11:55:04.699Z,1
2018-07-30T12:00:07.397Z,1
2018-07-30T12:05:09.768Z,1
2018-07-30T12:10:11.902Z,1
2018-07-30T12:15:14.377Z,1
2018-07-30T12:20:18.213Z,1
2018-07-30T12:25:19.319Z,1
2018-07-30T12:30:22.137Z,1
2018-07-30T12:35:24.539Z,1
2018-07-30T12:40:26.875Z,1
2018-07-30T12:45:29.145Z,1
2018-07-30T12:50:31.896Z,1
2018-07-30T12:55:34.537Z,1
2018-07-30T13:00:36.516Z,1
2018-07-30T13:05:39.040Z,1
2018-07-30T13:10:41.704Z,1
2018-07-30T13:15:43.947Z,1
2018-07-30T13:20:46.648Z,1
2018-07-30T13:25:48.988Z,1
2018-07-30T13:30:51.373Z,1
2018-07-30T13:35:53.805Z,1
2018-07-30T13:40:56.405Z,1
2018-07-30T13:45:58.683Z,1
2018-07-30T13:51:01.239Z,1
2018-07-30T13:56:03.670Z,1
2018-07-30T14:01:06.144Z,1
2018-07-30T14:11:11.115Z,1
2018-07-30T14:16:14.116Z,1
2018-07-30T14:21:15.922Z,1
2018-07-30T14:26:18.341Z,1
2018-07-30T14:31:20.859Z,1
2018-07-30T14:36:23.657Z,1
2018-07-30T14:41:25.690Z,1
2018-07-30T14:46:28.183Z,1
2018-07-30T14:51:30.697Z,1
2018-07-30T14:56:33.077Z,1
2018-07-30T15:01:35.557Z,1
2018-07-30T15:06:38.083Z,1
2018-07-30T15:11:40.466Z,1
2018-07-30T15:16:43.279Z,1
2018-07-30T15:21:45.416Z,1
2018-07-30T15:26:47.851Z,1
2018-07-30T15:31:50.310Z,1
2018-07-30T15:36:52.939Z,1
2018-07-30T15:41:55.299Z,1
2018-07-30T15:46:57.700Z,1
2018-07-30T15:52:00.153Z,1
2018-07-30T15:57:02.735Z,1
2018-07-30T16:02:05.063Z,1
2018-07-30T16:07:07.807Z,1
2018-07-30T16:12:10.095Z,1
2018-07-30T16:17:12.478Z,1
2018-07-30T16:22:14.924Z,1
2018-07-30T16:27:17.505Z,1
2018-07-30T16:32:19.854Z,1
2018-07-30T16:37:22.274Z,1
2018-07-30T16:42:24.741Z,1
2018-07-30T16:47:27.198Z,10.2
2018-07-30T16:52:29.835Z,11.5
2018-07-30T16:57:32.259Z,1
2018-07-30T17:02:34.696Z,1
2018-07-30T17:07:37.028Z,1
2018-07-30T17:12:39.584Z,1
2018-07-30T17:17:41.983Z,1
2018-07-30T17:22:44.624Z,1
2018-07-30T17:27:46.912Z,1
2018-07-30T17:32:49.420Z,1
2018-07-30T17:37:51.791Z,1
2018-07-30T17:42:54.488Z,1
2018-07-30T17:47:56.762Z,1
2018-07-30T17:52:59.176Z,1
2018-07-30T17:58:01.639Z,4.2
2018-07-30T18:03:04.173Z,1
2018-07-30T18:08:06.563Z,1
2018-07-30T18:13:09.104Z,7.1
2018-07-30T18:18:11.537Z,10.5
2018-07-30T18:23:14.046Z,10.5
2018-07-30T18:28:16.580Z,19.3
2018-07-30T18:33:18.922Z,22.8
2018-07-30T18:38:21.351Z,22.9
2018-07-30T18:43:23.944Z,30.4
2018-07-30T18:48:26.407Z,28.6
2018-07-30T18:53:28.863Z,32.8
2018-07-30T18:58:31.233Z,32.9
2018-07-30T19:03:33.619Z,36.3
2018-07-30T19:08:36.177Z,42.4
2018-07-30T19:13:38.537Z,45.6
2018-07-30T19:18:40.991Z,54
2018-07-30T19:23:43.486Z,54.3
2018-07-30T19:28:45.964Z,55.3
2018-07-30T19:33:48.369Z,61.8
2018-07-30T19:38:51.005Z,58.7
2018-07-30T19:43:53.382Z,58.7
2018-07-30T19:48:55.785Z,65.8
2018-07-30T19:53:58.246Z,67.5
2018-07-30T19:59:01.408Z,63.7
2018-07-30T20:04:03.229Z,67.3
2018-07-30T20:09:05.554Z,67.3
2018-07-30T20:14:08.306Z,69.3
2018-07-30T20:19:10.489Z,69.8
2018-07-30T20:24:13.694Z,71.9
2018-07-30T20:29:16.044Z,72
2018-07-30T20:34:17.921Z,78.2
2018-07-30T20:39:20.675Z,80.7
2018-07-30T20:44:22.882Z,86.5
2018-07-30T20:49:25.336Z,90.5
2018-07-30T20:54:27.977Z,90.2
2018-07-30T20:59:30.164Z,82.1
2018-07-30T21:04:32.656Z,83
2018-07-30T21:09:35.154Z,79.9
2018-07-30T21:14:37.591Z,81.5
2018-07-30T21:19:40.499Z,78.8
2018-07-30T21:24:42.561Z,76.5
2018-07-30T21:29:45.200Z,80.4
2018-07-30T21:34:47.670Z,85.1
2018-07-30T21:39:49.948Z,88
2018-07-30T21:44:52.383Z,90.2
2018-07-30T21:49:55.560Z,90.2
2018-07-30T21:54:57.196Z,90.9
2018-07-30T21:59:59.871Z,92
2018-07-30T22:05:02.338Z,92.4
2018-07-30T22:10:04.600Z,94.5
2018-07-30T22:15:07.156Z,94.5
2018-07-30T22:20:09.638Z,94
2018-07-30T22:25:12.017Z,93.1
2018-07-30T22:30:14.453Z,92.3
2018-07-30T22:35:16.874Z,91.6
2018-07-30T22:40:19.513Z,90.6
2018-07-30T22:45:21.964Z,89.1
2018-07-30T22:50:24.622Z,90.4
2018-07-30T22:55:26.852Z,89.4
2018-07-30T23:00:29.352Z,88.2
2018-07-30T23:05:33.180Z,88.9
2018-07-30T23:10:34.115Z,87.8
2018-07-30T23:15:36.583Z,88.3
2018-07-30T23:20:39.149Z,88.3
2018-07-30T23:25:41.726Z,90.1
2018-07-30T23:30:44.025Z,90.2
2018-07-30T23:35:46.385Z,90.2
2018-07-30T23:40:49.084Z,89.8
2018-07-30T23:45:51.377Z,89.3
2018-07-30T23:50:53.793Z,90.2
2018-07-30T23:55:56.657Z,90.7
